Chatham, MA (02633)

8:07 PM EDT on July 30, 2016 (GMT -0400)
| | Change Station

Elev -9999 ft 0.00 °N, 0.00 °E | Updated

Mostly Cloudy
Mostly Cloudy
70 °F
Feels Like 70 °F
N
2
Wind Variable Wind from SSW
Gusts mph

Today
High -- | Low -- °F
--% Chance of Precip.
Yesterday
High -- | Low -- °F
Precip. -- in
Pressure 30.06 in
Visibility 7.0 miles
Clouds Overcast 600 ft
Dew Point 68 °F
Humidity 96%
Rainfall --
Snow Depth Not available.
5:32 AM 7:59 PM
Waning Crescent, 10% visible
SPECI KCQX 302359Z AUTO VRB04KT 7SM OVC006 22/21 A3006 RMK AO2 CIG 004V008 T02220211
Pressure 30.06 in
Visibility 7.0 miles
Clouds Overcast 600 ft
Dew Point 68 °F
Humidity 96%
Rainfall --
Snow Depth Not available.
5:32 AM 7:59 PM
Waning Crescent, 10% visible
SPECI KCQX 302359Z AUTO VRB04KT 7SM OVC006 22/21 A3006 RMK AO2 CIG 004V008 T02220211

10-Day Weather Forecast

Almanac

Astronomy

Jul. 30, 2016 Rise Set
Actual Time
Civil Twilight
Nautical Twilight
Astronomical Twilight
Moon
Length of Visible Light
Length of Day
Tomorrow will be .
, % of the Moon is Illuminated

Today's Extremes

State Highs State Lows

Community

WunderPhotos

Upload Photos

1,928,682 photos uploaded!

WunderBlog® & News

Nearby

Air Quality

  Air Quality AQ Index Pollutant
Not available.

Snow Depth

Station Depth Elevation

Earthquake Activity

City Distance Mag. Time & Date
Minimum magnitude displayed is 2.5.

Coastal Water Temperatures

Place Temperature

Stations

Nearby Weather Stations

Station Location Temp. Windchill Dew Point Humidity Wind Precip. Elev Updated Type
                   

Watches & Warnings

There are currently no watches in effect.